createdAt,value
2023-02-28T00:00:29.658Z,99946.81
2023-02-28T00:02:57.500Z,99951.69
2023-02-28T00:05:27.298Z,99999.41
2023-02-28T00:07:56.061Z,99992.16
2023-02-28T00:10:27.808Z,99959.78
2023-02-28T00:12:58.156Z,99978.69
2023-02-28T00:15:26.573Z,100011.38
2023-02-28T00:17:54.740Z,100017.28
2023-02-28T00:20:22.875Z,100008.09
2023-02-28T00:22:53.075Z,99998.13
2023-02-28T00:25:25.728Z,99986.75
2023-02-28T00:27:53.977Z,99930.91
2023-02-28T00:30:24.507Z,99990.84
2023-02-28T00:32:52.765Z,99982.47
2023-02-28T00:35:20.676Z,99954.38
2023-02-28T00:37:50.912Z,99934.41
2023-02-28T00:40:18.952Z,99962.75
2023-02-28T00:42:46.817Z,99961.41
2023-02-28T00:45:14.567Z,99936.59
2023-02-28T00:47:42.440Z,99930.63
2023-02-28T00:50:11.581Z,99895.03
2023-02-28T00:52:39.401Z,99901.78
2023-02-28T00:55:07.367Z,99917.41
2023-02-28T00:57:35.296Z,99900.69
2023-02-28T01:00:04.789Z,99872.09
2023-02-28T01:02:32.610Z,99730.81
2023-02-28T01:05:00.573Z,99851.06
2023-02-28T01:07:32.666Z,99852.16
2023-02-28T01:10:00.527Z,99843.81
2023-02-28T01:12:30.801Z,99844.06
2023-02-28T01:14:59.128Z,99855.38
2023-02-28T01:17:27.615Z,99890.75
2023-02-28T01:19:57.273Z,99892.31
2023-02-28T01:22:26.598Z,99900.97
2023-02-28T01:24:54.734Z,99858.66
2023-02-28T01:27:22.668Z,99821.16
2023-02-28T01:29:52.917Z,99911.22
2023-02-28T01:32:20.928Z,99900.97
2023-02-28T01:34:49.000Z,99905.84
2023-02-28T01:37:16.814Z,99911.78
2023-02-28T01:39:45.448Z,99890.22
2023-02-28T01:42:13.507Z,99908.03
2023-02-28T01:45:02.366Z,99906.94
2023-02-28T01:47:34.743Z,99866.50
2023-02-28T01:50:05.955Z,99861.38
2023-02-28T01:52:35.610Z,99832.78
2023-02-28T01:55:07.994Z,99854.09
2023-02-28T01:57:42.918Z,99908.56
2023-02-28T02:00:21.693Z,99894.53
2023-02-28T02:02:54.603Z,99908.84
2023-02-28T02:05:26.591Z,99903.44
2023-02-28T02:07:59.531Z,99890.47
2023-02-28T02:10:35.246Z,99905.03
2023-02-28T02:13:26.541Z,99890.75
2023-02-28T02:16:25.486Z,99911.78
2023-02-28T02:19:02.647Z,99902.06
2023-02-28T02:21:42.809Z,99890.19
2023-02-28T02:24:15.144Z,99887.72
2023-02-28T02:26:56.136Z,99825.47
2023-02-28T02:29:42.764Z,99902.84
2023-02-28T02:32:44.881Z,99913.66
2023-02-28T02:35:19.857Z,99880.47
2023-02-28T02:38:07.881Z,99918.25
2023-02-28T02:41:02.663Z,99910.94
2023-02-28T02:43:46.267Z,99874.25
2023-02-28T02:46:20.404Z,99879.91
2023-02-28T02:48:49.557Z,99856.47
2023-02-28T02:51:22.519Z,99883.41
2023-02-28T02:53:59.155Z,99778.56
2023-02-28T02:56:33.191Z,99765.34
2023-02-28T02:59:06.400Z,99873.19
2023-02-28T03:01:37.036Z,99899.38
2023-02-28T03:04:10.210Z,99906.38
2023-02-28T03:06:39.706Z,99902.34
2023-02-28T03:09:07.492Z,99889.91
2023-02-28T03:11:37.933Z,99889.66
2023-02-28T03:14:21.395Z,99899.38
2023-02-28T03:16:58.551Z,99900.41
2023-02-28T03:19:39.620Z,99907.19
2023-02-28T03:22:40.932Z,99907.19
2023-02-28T03:25:29.438Z,99906.38
2023-02-28T03:28:21.569Z,99870.00
2023-02-28T03:30:58.871Z,99884.25
2023-02-28T03:33:33.896Z,99835.22
2023-02-28T03:36:21.101Z,99915.00
2023-02-28T03:38:57.671Z,99913.41
2023-02-28T03:41:34.274Z,99924.19
2023-02-28T03:44:08.325Z,99902.63
2023-02-28T03:46:42.378Z,99896.69
2023-02-28T03:49:24.343Z,99922.59
2023-02-28T03:51:55.677Z,99925.28
2023-02-28T03:54:29.688Z,99928.00
2023-02-28T03:57:07.809Z,99949.59
2023-02-28T03:59:47.795Z,99935.56
2023-02-28T04:02:15.813Z,99900.44
2023-02-28T04:04:49.750Z,99862.44
2023-02-28T04:07:18.698Z,99897.25
2023-02-28T04:09:46.816Z,99891.31
2023-02-28T04:12:14.689Z,99919.09
2023-02-28T04:14:42.428Z,99926.66
2023-02-28T04:17:10.225Z,99946.63
2023-02-28T04:19:38.264Z,99891.84
2023-02-28T04:22:06.091Z,99903.72
2023-02-28T04:24:33.898Z,99923.72
2023-02-28T04:27:01.785Z,99963.94
2023-02-28T04:29:35.603Z,99952.84
2023-02-28T04:32:04.503Z,99917.78
2023-02-28T04:34:33.692Z,99980.66
2023-02-28T04:37:12.963Z,99946.94
2023-02-28T04:39:43.031Z,99960.41
2023-02-28T04:42:11.625Z,99961.78
2023-02-28T04:44:39.455Z,99983.34
2023-02-28T04:47:07.330Z,99947.19
2023-02-28T04:49:35.140Z,99978.50
2023-02-28T04:52:03.645Z,99997.66
2023-02-28T04:54:31.663Z,99940.69
2023-02-28T04:56:59.375Z,99999.28
2023-02-28T04:59:27.418Z,99999.56
2023-02-28T05:01:55.280Z,99972.56
2023-02-28T05:04:23.199Z,99980.94
2023-02-28T05:06:51.103Z,99998.75
2023-02-28T05:09:19.124Z,99985.25
2023-02-28T05:11:46.947Z,99993.88
2023-02-28T05:14:16.183Z,99976.34
2023-02-28T05:16:44.001Z,99963.66
2023-02-28T05:19:11.865Z,99997.66
2023-02-28T05:21:42.243Z,99973.91
2023-02-28T05:24:13.678Z,99987.13
2023-02-28T05:26:43.836Z,99956.63
2023-02-28T05:29:11.850Z,100038.72
2023-02-28T05:31:41.811Z,100040.88
2023-02-28T05:34:12.471Z,100041.41
2023-02-28T05:36:40.875Z,100039.53
2023-02-28T05:39:13.831Z,99979.31
2023-02-28T05:41:43.458Z,100033.56
2023-02-28T05:44:13.340Z,100041.41
2023-02-28T05:46:41.370Z,100026.03
2023-02-28T05:49:09.229Z,99980.94
2023-02-28T05:51:41.128Z,100008.47
2023-02-28T05:54:09.277Z,100041.41
2023-02-28T05:56:41.053Z,100040.84
2023-02-28T05:59:09.237Z,100051.41
2023-02-28T06:01:51.604Z,100046.25
2023-02-28T06:04:32.614Z,100020.88
2023-02-28T06:07:00.361Z,100048.97
2023-02-28T06:09:28.151Z,100041.13
2023-02-28T06:11:58.510Z,100051.94
2023-02-28T06:14:26.633Z,100023.56
2023-02-28T06:16:54.618Z,99996.56
2023-02-28T06:19:24.046Z,100040.03
2023-02-28T06:21:53.680Z,100037.59
2023-02-28T06:24:22.416Z,100031.38
2023-02-28T06:26:51.064Z,100045.97
2023-02-28T06:29:19.450Z,100032.75
2023-02-28T06:31:48.071Z,100043.00
2023-02-28T06:34:16.352Z,100004.66
2023-02-28T06:36:50.573Z,100049.50
2023-02-28T06:39:18.760Z,100011.16
2023-02-28T06:41:55.481Z,100032.19
2023-02-28T06:44:24.275Z,100067.59
2023-02-28T06:46:54.743Z,100045.16
2023-02-28T06:49:24.143Z,100069.22
2023-02-28T06:51:51.874Z,100025.19
2023-02-28T06:54:19.575Z,100062.19
2023-02-28T06:56:48.144Z,100059.75
2023-02-28T06:59:16.055Z,100071.16
2023-02-28T07:01:44.548Z,100053.81
2023-02-28T07:04:14.394Z,100044.63
2023-02-28T07:06:42.530Z,100056.25
2023-02-28T07:09:12.723Z,100080.56
2023-02-28T07:11:42.450Z,100092.19
2023-02-28T07:14:11.031Z,100074.38
2023-02-28T07:16:38.923Z,100092.19
2023-02-28T07:19:07.073Z,100009.81
2023-02-28T07:21:35.601Z,100042.75
2023-02-28T07:24:03.663Z,100090.03
2023-02-28T07:26:31.382Z,100016.28
2023-02-28T07:28:59.205Z,100057.88
2023-02-28T07:31:27.206Z,100103.00
2023-02-28T07:33:55.093Z,100089.75
2023-02-28T07:36:23.090Z,100105.97
2023-02-28T07:38:54.343Z,100115.41
2023-02-28T07:41:24.656Z,100053.00
2023-02-28T07:43:54.962Z,100135.97
2023-02-28T07:46:22.899Z,100048.66
2023-02-28T07:48:50.786Z,100146.75
2023-02-28T07:51:20.461Z,100102.97
2023-02-28T07:53:48.424Z,100122.19
2023-02-28T07:56:16.237Z,100158.38
2023-02-28T07:58:44.002Z,100176.50
2023-02-28T08:01:12.701Z,100159.72
2023-02-28T08:03:41.550Z,100187.56
2023-02-28T08:06:17.616Z,100192.19
2023-02-28T08:08:45.605Z,100195.44
2023-02-28T08:11:13.522Z,100192.19
2023-02-28T08:13:43.545Z,100207.34
2023-02-28T08:16:12.377Z,100196.53
2023-02-28T08:18:40.348Z,100208.69
2023-02-28T08:21:11.722Z,100185.16
2023-02-28T08:23:39.846Z,100191.91
2023-02-28T08:26:08.074Z,100189.47
2023-02-28T08:28:35.913Z,100138.91
2023-02-28T08:31:10.218Z,100162.44
2023-02-28T08:33:40.229Z,100175.41
2023-02-28T08:36:10.395Z,100190.03
2023-02-28T08:38:39.265Z,100187.09
2023-02-28T08:41:10.621Z,100196.53
2023-02-28T08:43:39.161Z,100152.97
2023-02-28T08:46:08.727Z,100199.78
2023-02-28T08:48:39.049Z,100187.34
2023-02-28T08:51:13.115Z,100215.75
2023-02-28T08:53:41.539Z,100217.66
2023-02-28T08:56:17.764Z,100231.16
2023-02-28T08:58:47.256Z,100218.66
2023-02-28T09:01:28.562Z,100229.75
2023-02-28T09:06:27.222Z,100227.34
2023-02-28T09:09:02.258Z,100230.03
2023-02-28T09:11:30.295Z,100254.38
2023-02-28T09:14:00.243Z,100233.25
2023-02-28T09:16:28.061Z,100235.91
2023-02-28T09:18:55.880Z,100194.81
2023-02-28T09:21:24.703Z,100241.59
2023-02-28T09:23:54.620Z,100251.31
2023-02-28T09:26:32.509Z,100271.09
2023-02-28T09:29:07.984Z,100198.56
2023-02-28T09:31:35.893Z,100267.84
2023-02-28T09:34:05.581Z,100283.28
2023-02-28T09:36:45.300Z,100253.84
2023-02-28T09:39:16.889Z,100287.97
2023-02-28T09:41:51.724Z,100287.41
2023-02-28T09:44:35.276Z,100286.03
2023-02-28T09:47:31.362Z,100280.38
2023-02-28T09:50:09.656Z,100236.00
2023-02-28T09:52:37.983Z,100277.94
2023-02-28T09:55:24.133Z,100291.19
2023-02-28T09:57:53.224Z,100291.72
2023-02-28T10:00:41.016Z,100244.13
2023-02-28T10:03:35.366Z,100267.94
2023-02-28T10:06:08.202Z,100205.69
2023-02-28T10:08:46.837Z,100277.94
2023-02-28T10:11:19.337Z,100275.78
2023-02-28T10:14:15.618Z,100277.66
2023-02-28T10:16:53.172Z,100296.31
2023-02-28T10:19:43.532Z,100309.84
2023-02-28T10:22:24.211Z,100327.97
2023-02-28T10:24:54.071Z,100316.03
2023-02-28T10:27:29.978Z,100322.28
2023-02-28T10:30:01.624Z,100348.00
2023-02-28T10:32:34.666Z,100345.84
2023-02-28T10:35:24.387Z,100342.06
2023-02-28T10:37:56.162Z,100263.03
2023-02-28T10:40:24.138Z,100326.63
2023-02-28T10:43:01.676Z,100349.91
2023-02-28T10:45:35.992Z,100319.31
2023-02-28T10:48:07.607Z,100315.25
2023-02-28T10:50:51.777Z,100332.84
2023-02-28T10:53:28.956Z,100329.59
2023-02-28T10:56:10.332Z,100338.53
2023-02-28T10:59:02.042Z,100339.91
2023-02-28T11:01:42.356Z,100339.91
2023-02-28T11:04:37.716Z,100341.50
2023-02-28T11:07:24.525Z,100356.69
2023-02-28T11:09:56.160Z,100342.88
2023-02-28T11:12:43.404Z,100320.66
2023-02-28T11:15:35.481Z,100361.00
2023-02-28T11:18:14.059Z,100367.22
2023-02-28T11:20:42.174Z,100349.63
2023-02-28T11:23:14.953Z,100377.22
2023-02-28T11:25:52.490Z,100336.63
2023-02-28T11:28:33.610Z,100350.69
2023-02-28T11:31:15.033Z,100379.09
2023-02-28T11:33:57.827Z,100384.53
2023-02-28T11:36:27.022Z,100385.34
2023-02-28T11:38:57.930Z,100371.00
2023-02-28T11:41:46.850Z,100386.72
2023-02-28T11:44:20.686Z,100379.63
2023-02-28T11:46:52.562Z,100390.47
2023-02-28T11:49:23.507Z,100389.13
2023-02-28T11:52:00.304Z,100381.56
2023-02-28T11:54:32.231Z,100384.53
2023-02-28T11:57:17.230Z,100288.91
2023-02-28T12:00:46.336Z,100347.97
2023-02-28T12:03:35.764Z,100363.41
2023-02-28T12:06:30.751Z,100354.50
2023-02-28T12:09:51.169Z,100353.41
2023-02-28T12:12:49.335Z,100356.09
2023-02-28T12:15:39.376Z,100355.00
2023-02-28T12:18:37.469Z,100337.72
2023-02-28T12:21:43.864Z,100346.38
2023-02-28T12:24:50.331Z,100344.50
2023-02-28T12:27:22.693Z,100309.59
2023-02-28T12:30:02.098Z,100290.66
2023-02-28T12:32:44.170Z,100309.06
2023-02-28T12:35:17.768Z,100333.66
2023-02-28T12:37:59.146Z,100304.97
2023-02-28T12:40:45.795Z,100320.94
2023-02-28T12:43:16.672Z,100307.41
2023-02-28T12:45:53.325Z,100327.16
2023-02-28T12:48:57.691Z,100321.19
2023-02-28T12:51:27.809Z,100295.75
2023-02-28T12:54:14.394Z,100335.22
2023-02-28T12:56:49.108Z,100339.28
2023-02-28T12:59:22.467Z,100339.28
2023-02-28T13:01:58.396Z,100342.53
2023-02-28T13:04:50.609Z,100343.59
2023-02-28T13:07:21.290Z,100340.09
2023-02-28T13:09:57.802Z,100285.72
2023-02-28T13:12:28.301Z,100324.59
2023-02-28T13:15:17.613Z,100327.81
2023-02-28T13:17:50.806Z,100325.91
2023-02-28T13:20:22.871Z,100322.91
2023-02-28T13:23:15.192Z,100316.97
2023-02-28T13:25:48.408Z,100322.34
2023-02-28T13:28:57.108Z,100321.53
2023-02-28T13:31:25.154Z,100250.16
2023-02-28T13:34:00.677Z,100316.91
2023-02-28T13:36:33.533Z,100326.38
2023-02-28T13:39:05.213Z,100331.50
2023-02-28T13:41:33.351Z,100330.97
2023-02-28T13:44:12.219Z,100336.06
2023-02-28T13:46:51.809Z,100332.47
2023-02-28T13:49:32.852Z,100325.88
2023-02-28T13:52:15.299Z,100336.22
2023-02-28T13:54:52.198Z,100333.78
2023-02-28T13:57:25.860Z,100332.97
2023-02-28T13:59:56.472Z,100337.31
2023-02-28T14:02:51.657Z,100328.16
2023-02-28T14:05:26.778Z,100274.94
2023-02-28T14:07:59.154Z,100319.00
2023-02-28T14:10:31.951Z,100338.22
2023-02-28T14:13:16.172Z,100340.91
2023-02-28T14:16:00.922Z,100339.81
2023-02-28T14:18:34.694Z,100335.22
2023-02-28T14:21:08.471Z,100350.41
2023-02-28T14:24:09.902Z,100334.72
2023-02-28T14:27:15.291Z,100351.78
2023-02-28T14:29:54.441Z,100350.13
2023-02-28T14:32:34.118Z,100349.59
2023-02-28T14:35:21.593Z,100352.59
2023-02-28T14:37:50.790Z,100336.34
2023-02-28T14:40:27.610Z,100346.59
2023-02-28T14:42:58.753Z,100330.38
2023-02-28T14:45:31.367Z,100321.69
2023-02-28T14:48:00.800Z,100354.72
2023-02-28T14:50:32.782Z,100349.88
2023-02-28T14:53:00.403Z,100338.25
2023-02-28T14:55:32.021Z,100340.44
2023-02-28T14:58:07.576Z,100319.09
2023-02-28T15:00:38.791Z,100359.63
2023-02-28T15:03:22.818Z,100361.25
2023-02-28T15:06:06.158Z,100361.50
2023-02-28T15:08:37.293Z,100349.91
2023-02-28T15:11:14.029Z,100358.31
2023-02-28T15:13:48.811Z,100314.50
2023-02-28T15:16:35.241Z,100369.44
2023-02-28T15:19:07.760Z,100364.03
2023-02-28T15:21:39.304Z,100367.56
2023-02-28T15:24:43.406Z,100364.03
2023-02-28T15:27:24.126Z,100375.41
2023-02-28T15:29:57.418Z,100338.09
2023-02-28T15:32:36.098Z,100376.75
2023-02-28T15:35:25.904Z,100361.84
2023-02-28T15:37:57.542Z,100376.72
2023-02-28T15:40:32.431Z,100358.59
2023-02-28T15:43:01.291Z,100381.06
2023-02-28T15:45:39.635Z,100382.44
2023-02-28T15:48:19.875Z,100365.66
2023-02-28T15:51:02.825Z,100361.63
2023-02-28T15:53:34.730Z,100379.44
2023-02-28T15:56:15.675Z,100384.31
2023-02-28T15:58:43.936Z,100381.63
2023-02-28T16:01:21.816Z,100380.50
2023-02-28T16:03:52.738Z,100388.38
2023-02-28T16:06:36.809Z,100396.50
2023-02-28T16:09:09.084Z,100394.31
2023-02-28T16:12:01.003Z,100368.94
2023-02-28T16:14:33.765Z,100393.78
2023-02-28T16:17:09.962Z,100381.63
2023-02-28T16:19:37.679Z,100368.34
2023-02-28T16:22:05.408Z,100396.53
2023-02-28T16:24:33.217Z,100394.88
2023-02-28T16:27:01.923Z,100405.69
2023-02-28T16:29:36.120Z,100356.47
2023-02-28T16:32:06.693Z,100369.94
2023-02-28T16:34:37.078Z,100410.84
2023-02-28T16:37:11.890Z,100373.72
2023-02-28T16:39:39.643Z,100378.59
2023-02-28T16:42:08.154Z,100410.56
2023-02-28T16:44:37.274Z,100407.59
2023-02-28T16:47:05.921Z,100411.94
2023-02-28T16:49:33.555Z,100375.63
2023-02-28T16:52:01.323Z,100402.41
2023-02-28T16:54:29.112Z,100404.06
2023-02-28T16:56:56.996Z,100396.75
2023-02-28T16:59:27.693Z,100382.41
2023-02-28T17:01:58.827Z,100362.41
2023-02-28T17:04:28.348Z,100376.50
2023-02-28T17:06:56.094Z,100384.63
2023-02-28T17:09:36.599Z,100405.19
2023-02-28T17:12:10.586Z,100409.78
2023-02-28T17:14:39.690Z,100424.13
2023-02-28T17:17:08.443Z,100418.75
2023-02-28T17:19:37.271Z,100388.94
2023-02-28T17:22:05.157Z,100397.06
2023-02-28T17:24:32.788Z,100400.31
2023-02-28T17:27:01.154Z,100412.50
2023-02-28T17:29:29.216Z,100400.88
2023-02-28T17:31:58.969Z,100386.28
2023-02-28T17:34:28.524Z,100442.03
2023-02-28T17:36:56.372Z,100432.59
2023-02-28T17:39:27.070Z,100413.63
2023-02-28T17:41:56.350Z,100420.63
2023-02-28T17:44:26.155Z,100449.09
2023-02-28T17:46:55.906Z,100435.28
2023-02-28T17:49:24.115Z,100416.59
2023-02-28T17:51:51.785Z,100425.81
2023-02-28T17:54:19.485Z,100438.25
2023-02-28T17:56:47.582Z,100471.84
2023-02-28T17:59:15.488Z,100466.41
2023-02-28T18:01:43.401Z,100447.50
2023-02-28T18:04:11.267Z,100476.97
2023-02-28T18:06:47.452Z,100480.53
2023-02-28T18:09:23.035Z,100481.06
2023-02-28T18:11:52.803Z,100490.31
2023-02-28T18:14:24.548Z,100486.78
2023-02-28T18:16:54.256Z,100448.06
2023-02-28T18:19:22.490Z,100503.34
2023-02-28T18:21:52.960Z,100495.19
2023-02-28T18:24:23.201Z,100510.09
2023-02-28T18:26:51.803Z,100505.25
2023-02-28T18:29:26.962Z,100491.41
2023-02-28T18:31:56.531Z,100503.34
2023-02-28T18:34:25.375Z,100474.66
2023-02-28T18:36:53.665Z,100485.47
2023-02-28T18:39:21.545Z,100468.66
2023-02-28T18:41:50.152Z,100503.09
2023-02-28T18:44:21.097Z,100519.91
2023-02-28T18:46:50.609Z,100499.25
2023-02-28T18:49:18.875Z,100495.22
2023-02-28T18:51:48.018Z,100471.91
2023-02-28T18:54:17.798Z,100480.84
2023-02-28T18:56:46.249Z,100486.28
2023-02-28T18:59:14.215Z,100499.25
2023-02-28T19:01:42.424Z,100501.16
2023-02-28T19:04:13.593Z,100457.06
2023-02-28T19:06:42.399Z,100501.44
2023-02-28T19:09:10.660Z,100484.41
2023-02-28T19:11:38.730Z,100495.50
2023-02-28T19:14:06.555Z,100490.31
2023-02-28T19:16:34.509Z,100532.03
2023-02-28T19:19:02.324Z,100484.94
2023-02-28T19:21:30.378Z,100527.75
2023-02-28T19:23:58.339Z,100514.19
2023-02-28T19:26:26.991Z,100496.84
2023-02-28T19:28:54.956Z,100538.03
2023-02-28T19:31:26.747Z,100540.75
2023-02-28T19:33:59.086Z,100527.19
2023-02-28T19:36:27.788Z,100512.56
2023-02-28T19:38:55.977Z,100528.56
2023-02-28T19:41:25.074Z,100526.69
2023-02-28T19:43:54.730Z,100518.81
2023-02-28T19:46:22.712Z,100525.84
2023-02-28T19:48:54.053Z,100460.56
2023-02-28T19:51:22.714Z,100451.72
2023-02-28T19:53:50.808Z,100525.03
2023-02-28T19:56:18.501Z,100528.59
2023-02-28T19:58:46.550Z,100514.25
2023-02-28T20:01:16.741Z,100498.00
2023-02-28T20:03:51.585Z,100534.81
2023-02-28T20:06:20.876Z,100537.28
2023-02-28T20:08:55.690Z,100537.84
2023-02-28T20:11:26.308Z,100338.28
2023-02-28T20:14:02.457Z,100467.94
2023-02-28T20:16:31.367Z,100487.19
2023-02-28T20:18:59.535Z,100464.44
2023-02-28T20:21:27.547Z,100519.94
2023-02-28T20:23:55.481Z,100495.06
2023-02-28T20:26:23.264Z,100507.78
2023-02-28T20:28:51.304Z,100488.00
2023-02-28T20:31:22.389Z,100503.47
2023-02-28T20:33:51.170Z,100529.97
2023-02-28T20:36:23.000Z,100526.22
2023-02-28T20:38:52.995Z,100528.91
2023-02-28T20:41:21.523Z,100475.00
2023-02-28T20:43:55.303Z,100521.84
2023-02-28T20:46:23.176Z,100477.94
2023-02-28T20:48:51.282Z,100537.03
2023-02-28T20:51:19.824Z,100538.38
2023-02-28T20:53:48.294Z,100536.47
2023-02-28T20:56:19.206Z,100538.38
2023-02-28T20:58:51.586Z,100528.91
2023-02-28T21:01:26.345Z,100528.34
2023-02-28T21:04:00.189Z,100523.75
2023-02-28T21:06:32.381Z,100519.69
2023-02-28T21:09:00.451Z,100545.41
2023-02-28T21:11:31.608Z,100537.84
2023-02-28T21:14:01.435Z,100382.78
2023-02-28T21:16:32.399Z,100543.53
2023-02-28T21:19:06.015Z,100493.88
2023-02-28T21:21:40.003Z,100557.59
2023-02-28T21:24:08.070Z,100524.25
2023-02-28T21:26:36.075Z,100537.28
2023-02-28T21:29:04.084Z,100538.63
2023-02-28T21:31:35.859Z,100539.19
2023-02-28T21:34:08.688Z,100557.06
2023-02-28T21:36:40.317Z,100572.78
2023-02-28T21:39:13.406Z,100526.72
2023-02-28T21:41:42.080Z,100539.19
2023-02-28T21:44:19.155Z,100537.56
2023-02-28T21:46:47.962Z,100544.38
2023-02-28T21:49:16.597Z,100544.34
2023-02-28T21:51:44.924Z,100537.28
2023-02-28T21:54:19.190Z,100553.56
2023-02-28T21:56:47.146Z,100549.19
2023-02-28T21:59:15.186Z,100260.16
2023-02-28T22:01:44.863Z,100551.66
2023-02-28T22:04:21.695Z,100552.72
2023-02-28T22:07:00.047Z,100541.63
2023-02-28T22:09:28.683Z,100543.50
2023-02-28T22:11:58.838Z,100518.53
2023-02-28T22:14:27.076Z,100551.94
2023-02-28T22:16:56.999Z,100468.97
2023-02-28T22:19:27.668Z,100479.00
2023-02-28T22:21:56.354Z,100484.94
2023-02-28T22:24:25.368Z,100528.31
2023-02-28T22:26:53.741Z,100529.63
2023-02-28T22:29:22.282Z,100477.34
2023-02-28T22:31:50.750Z,100538.56
2023-02-28T22:34:20.031Z,100547.25
2023-02-28T22:36:47.817Z,100547.50
2023-02-28T22:39:16.603Z,100539.66
2023-02-28T22:41:44.612Z,100525.00
2023-02-28T22:44:12.627Z,100558.09
2023-02-28T22:46:40.657Z,100547.78
2023-02-28T22:49:08.649Z,100480.00
2023-02-28T22:51:36.752Z,100531.75
2023-02-28T22:54:04.913Z,100565.09
2023-02-28T22:56:33.278Z,100560.19
2023-02-28T22:59:02.470Z,100560.47
2023-02-28T23:01:34.012Z,100507.06
2023-02-28T23:04:03.099Z,100527.94
2023-02-28T23:06:42.457Z,100480.50
2023-02-28T23:09:18.551Z,100555.31
2023-02-28T23:11:49.566Z,100554.22
2023-02-28T23:14:19.230Z,100558.56
2023-02-28T23:16:49.881Z,100381.19
2023-02-28T23:19:22.205Z,100561.78
2023-02-28T23:21:50.316Z,100537.66
2023-02-28T23:24:21.337Z,100549.28
2023-02-28T23:26:54.060Z,100556.88
2023-02-28T23:29:23.486Z,100557.94
2023-02-28T23:31:52.683Z,100547.84
2023-02-28T23:34:26.813Z,100535.41
2023-02-28T23:36:56.028Z,100545.19
2023-02-28T23:39:25.693Z,100549.44
2023-02-28T23:41:53.944Z,100563.00
2023-02-28T23:44:21.965Z,100478.59
2023-02-28T23:46:52.488Z,100525.16
2023-02-28T23:49:21.174Z,100563.75
2023-02-28T23:51:51.808Z,100489.97
2023-02-28T23:54:19.978Z,100568.09
2023-02-28T23:56:48.154Z,100529.53
2023-02-28T23:59:18.058Z,100567.50
